NWWW METAR and TAF weather

Enter ICAO airport designator
Station Type Date Time Source
NWWW METAR 2019/02/20 23:30 UTC NOAA

NWWW 202330Z AUTO 03009KT 350V080 9999 BKN056/// ///TCU 32/23 Q1001 TEMPO 01015G28KT SHRA


Station Type Date Time Source
NWWW Decoded METAR 2019/02/20 23:30 UTC NOAA

La Tontouta Nlle-Caledonie , New Caledonia (NWWW) 22-01S 166-13E 14M
Feb 20, 2019 - 06:30 PM EST / 2019.02.20 2330 UTC
Wind: from the NNE (030 degrees) at 10 MPH (9 KT) (direction variable):0
Visibility: greater than 7 mile(s):0
Sky conditions: mostly cloudy
Weather: Towering cumulus clouds observed
Temperature: 89 F (32 C)
Heat index: 96.8 F (36.0 C):1
Dew Point: 73 F (23 C)
Relative Humidity: 59%
Pressure (altimeter): 29.56 in. Hg (1001 hPa)
ob: NWWW 202330Z AUTO 03009KT 350V080 9999 BKN056/// ///TCU 32/23 Q1001 TEMPO 01015G28KT SHRA
cycle: 23

Station Type Date Time Source
NWWW TAF 2019/02/20 18:33 UTC NOAA

TAF NWWW 201700Z 2018/2118 19008KT 9999 BKN040
TEMPO 2018/2024 3000 SHRA BKN014 FEW018CB


Example: see airport list